Time;durP1;ratioP1;P1;durP2;ratioP2;P2;SDS_P1;SDS_P2;PMS_P1;PMS_P2;Temp;Humidity;BMP_temperature;BMP_pressure;BME280_temperature;BME280_humidity;BME280_pressure;Samples;Min_cycle;Max_cycle;Signal;HPM_P1;HPM_P2
2023/06/24 00:00:26;;;;;;;13.70;9.93;;;;;;;18.70;100.00;102278.66;5008383;28;20141;-60
2023/06/24 00:02:54;;;;;;;11.30;9.60;;;;;;;18.64;100.00;102276.47;5007915;28;20054;-59
2023/06/24 00:05:22;;;;;;;13.25;9.68;;;;;;;18.72;100.00;102281.22;5010337;28;20053;-59
2023/06/24 00:07:50;;;;;;;12.80;9.20;;;;;;;18.64;100.00;102272.94;5012231;28;20054;-62
2023/06/24 00:10:20;;;;;;;12.55;9.65;;;;;;;18.64;100.00;102273.81;5012092;28;20493;-59
2023/06/24 00:12:48;;;;;;;15.07;9.60;;;;;;;18.61;100.00;102263.41;5011638;28;20058;-59
2023/06/24 00:15:17;;;;;;;12.65;9.52;;;;;;;18.61;100.00;102267.88;5011309;28;20080;-57
2023/06/24 00:17:46;;;;;;;14.05;9.32;;;;;;;18.58;100.00;102268.94;5011208;28;20042;-57
2023/06/24 00:20:14;;;;;;;11.50;8.73;;;;;;;18.61;100.00;102274.06;5010375;28;20050;-57
2023/06/24 00:22:43;;;;;;;12.05;8.40;;;;;;;18.59;100.00;102276.81;5011414;28;20081;-60
2023/06/24 00:25:12;;;;;;;12.05;7.93;;;;;;;18.55;100.00;102274.50;5011795;28;20050;-58
2023/06/24 00:27:43;;;;;;;12.57;8.75;;;;;;;18.52;100.00;102280.09;5011785;28;20577;-57
2023/06/24 00:30:14;;;;;;;13.35;7.90;;;;;;;18.50;100.00;102277.53;5011054;28;20101;-58
2023/06/24 00:32:42;;;;;;;11.00;8.50;;;;;;;18.52;100.00;102277.41;5009621;28;20061;-60
2023/06/24 00:35:12;;;;;;;11.75;8.30;;;;;;;18.48;100.00;102290.13;5011750;28;20042;-57
2023/06/24 00:37:40;;;;;;;10.40;8.00;;;;;;;18.48;100.00;102278.63;5011286;28;20060;-57
2023/06/24 00:40:11;;;;;;;11.88;8.25;;;;;;;18.57;100.00;102285.91;5011669;28;20497;-59
2023/06/24 00:42:39;;;;;;;11.77;9.05;;;;;;;18.60;100.00;102280.34;5011674;28;20064;-59
2023/06/24 00:45:10;;;;;;;12.23;8.20;;;;;;;18.57;100.00;102277.94;5009364;28;20559;-59
2023/06/24 00:47:39;;;;;;;11.52;8.50;;;;;;;18.54;100.00;102284.34;5010835;28;20053;-61
2023/06/24 00:50:08;;;;;;;10.32;8.57;;;;;;;18.51;100.00;102267.72;5011453;28;20145;-59
2023/06/24 00:52:39;;;;;;;13.35;8.13;;;;;;;18.48;100.00;102282.13;5010711;28;20125;-59
2023/06/24 00:55:07;;;;;;;12.30;8.48;;;;;;;18.49;100.00;102281.16;5011471;28;20034;-59
2023/06/24 00:57:38;;;;;;;12.23;8.63;;;;;;;18.57;100.00;102278.75;5010933;28;20066;-59
2023/06/24 01:00:16;;;;;;;12.75;8.85;;;;;;;18.56;100.00;102287.72;5010852;28;20463;-57
2023/06/24 01:02:47;;;;;;;12.23;8.80;;;;;;;18.55;100.00;102282.50;5010577;28;20042;-56
2023/06/24 01:05:16;;;;;;;11.55;8.40;;;;;;;18.54;100.00;102279.00;5010177;28;20045;-59
2023/06/24 01:07:44;;;;;;;10.75;8.30;;;;;;;18.60;100.00;102272.34;5009077;28;20583;-58
2023/06/24 01:10:14;;;;;;;11.02;8.43;;;;;;;18.60;100.00;102267.03;5010580;28;20046;-59
2023/06/24 01:12:44;;;;;;;12.05;7.93;;;;;;;18.62;100.00;102269.56;5009034;28;20060;-58
2023/06/24 01:15:13;;;;;;;12.20;8.43;;;;;;;18.62;100.00;102269.56;5010392;28;20037;-58
2023/06/24 01:17:49;;;;;;;12.85;8.35;;;;;;;18.68;100.00;102261.09;5009517;28;20436;-57
2023/06/24 01:20:24;;;;;;;11.93;8.30;;;;;;;18.72;100.00;102260.75;5010315;28;20524;-57
2023/06/24 01:23:31;;;;;;;12.23;8.07;;;;;;;18.63;100.00;102266.78;5009984;28;20046;-57
2023/06/24 01:26:35;;;;;;;12.77;8.15;;;;;;;18.65;100.00;102270.19;5010435;28;20091;-59
2023/06/24 01:29:35;;;;;;;11.77;8.48;;;;;;;18.64;100.00;102268.47;4999612;28;20094;-59
2023/06/24 01:32:10;;;;;;;11.95;8.57;;;;;;;18.61;100.00;102266.06;5009748;28;20045;-58
2023/06/24 01:34:45;;;;;;;13.77;8.52;;;;;;;18.54;100.00;102265.69;5010680;28;20132;-58
2023/06/24 01:37:18;;;;;;;13.25;8.05;;;;;;;18.50;100.00;102258.03;5010060;28;20073;-59
2023/06/24 01:39:50;;;;;;;11.93;8.20;;;;;;;18.59;100.00;102260.81;5010809;28;20081;-58
2023/06/24 01:42:20;;;;;;;10.90;8.32;;;;;;;18.58;100.00;102258.28;5010183;28;20049;-57
2023/06/24 01:44:49;;;;;;;11.40;8.32;;;;;;;18.55;100.00;102259.38;5009763;28;20129;-57
2023/06/24 01:47:24;;;;;;;12.10;8.45;;;;;;;18.49;100.00;102251.88;5009558;28;20050;-57
2023/06/24 01:49:55;;;;;;;11.10;7.90;;;;;;;18.46;100.00;102254.78;5009986;28;20191;-58
2023/06/24 01:52:27;;;;;;;11.27;8.65;;;;;;;18.39;100.00;102257.06;5009772;28;20129;-58
2023/06/24 01:54:56;;;;;;;15.83;8.77;;;;;;;18.34;100.00;102258.38;5010376;28;20084;-59
2023/06/24 01:57:27;;;;;;;11.77;8.70;;;;;;;18.30;100.00;102260.41;5009015;28;20511;-58
2023/06/24 01:59:57;;;;;;;11.80;9.45;;;;;;;18.01;100.00;102270.56;5009454;28;20034;-59
2023/06/24 02:02:29;;;;;;;11.13;8.48;;;;;;;17.97;100.00;102274.44;5009137;28;20501;-59
2023/06/24 02:04:58;;;;;;;13.45;8.93;;;;;;;17.94;100.00;102272.84;5009680;28;20045;-59
2023/06/24 02:07:30;;;;;;;12.23;9.02;;;;;;;18.02;100.00;102265.13;5009404;28;20069;-59
2023/06/24 02:10:00;;;;;;;13.30;8.93;;;;;;;17.93;100.00;102268.50;5008445;28;20065;-60
2023/06/24 02:12:29;;;;;;;13.65;10.02;;;;;;;17.91;100.00;102262.41;5009686;28;20037;-60
2023/06/24 02:14:59;;;;;;;14.10;10.10;;;;;;;17.94;100.00;102264.84;5009019;28;20045;-60
2023/06/24 02:17:29;;;;;;;12.65;9.77;;;;;;;17.97;100.00;102262.00;5008922;28;20058;-60
2023/06/24 02:19:59;;;;;;;12.90;10.07;;;;;;;17.96;100.00;102265.59;5009114;28;20052;-59
2023/06/24 02:22:28;;;;;;;12.52;10.07;;;;;;;17.97;100.00;102264.66;5009159;28;20049;-58
2023/06/24 02:24:56;;;;;;;14.63;10.82;;;;;;;17.94;100.00;102259.53;5009606;28;20069;-59
2023/06/24 02:27:25;;;;;;;16.02;10.65;;;;;;;17.88;100.00;102255.47;5009095;28;20124;-58
2023/06/24 02:29:55;;;;;;;14.52;10.75;;;;;;;17.90;100.00;102258.03;5009125;28;20046;-58
2023/06/24 02:32:23;;;;;;;14.75;10.38;;;;;;;17.90;100.00;102266.00;5008655;28;20584;-58
2023/06/24 02:34:53;;;;;;;15.98;11.88;;;;;;;17.84;100.00;102259.34;5009642;28;20049;-58
2023/06/24 02:37:21;;;;;;;14.18;11.32;;;;;;;17.84;100.00;102259.34;5009402;28;20386;-58
2023/06/24 02:39:49;;;;;;;14.82;11.30;;;;;;;17.88;100.00;102259.97;5009777;28;20426;-58
2023/06/24 02:42:17;;;;;;;13.15;11.25;;;;;;;17.96;100.00;102246.97;5009082;28;20046;-58
2023/06/24 02:44:45;;;;;;;16.30;11.55;;;;;;;17.85;100.00;102244.25;5007753;28;20516;-59
2023/06/24 02:47:17;;;;;;;15.55;11.80;;;;;;;17.87;100.00;102235.19;5008051;28;20046;-59
2023/06/24 02:49:47;;;;;;;15.27;11.87;;;;;;;17.89;100.00;102235.06;5009804;28;20056;-58
2023/06/24 02:52:17;;;;;;;16.27;11.48;;;;;;;17.82;100.00;102249.75;5008957;28;20528;-58
2023/06/24 02:54:46;;;;;;;15.55;11.38;;;;;;;17.74;100.00;102240.53;5009650;28;20049;-58
2023/06/24 02:57:15;;;;;;;15.88;11.43;;;;;;;17.73;100.00;102248.66;5007842;28;20058;-58
2023/06/24 02:59:44;;;;;;;14.88;11.38;;;;;;;17.74;100.00;102245.03;5008842;28;20058;-58
2023/06/24 03:02:13;;;;;;;14.25;11.20;;;;;;;17.74;100.00;102243.22;5008156;28;20124;-58
2023/06/24 03:04:41;;;;;;;14.00;11.55;;;;;;;17.69;100.00;102253.34;5009502;28;20056;-58
2023/06/24 03:07:10;;;;;;;13.57;11.10;;;;;;;17.66;100.00;102250.91;5008783;28;20058;-59
2023/06/24 03:09:41;;;;;;;17.13;12.35;;;;;;;17.63;100.00;102263.56;5009486;28;20072;-59
2023/06/24 03:12:10;;;;;;;13.85;11.15;;;;;;;17.64;100.00;102258.16;5008966;28;20050;-59
2023/06/24 03:14:38;;;;;;;15.02;11.65;;;;;;;17.52;100.00;102261.69;5009070;28;20041;-59
2023/06/24 03:17:06;;;;;;;15.77;11.25;;;;;;;17.51;100.00;102260.00;5008384;28;20140;-59
2023/06/24 03:19:34;;;;;;;14.82;12.02;;;;;;;17.51;100.00;102257.34;5008877;28;20046;-58
2023/06/24 03:22:03;;;;;;;15.13;11.82;;;;;;;17.51;100.00;102257.34;5008830;28;20050;-58
2023/06/24 03:24:31;;;;;;;14.30;11.57;;;;;;;17.45;100.00;102256.00;5008784;28;20050;-58
2023/06/24 03:27:04;;;;;;;17.40;11.07;;;;;;;17.52;100.00;102254.56;5009122;28;20042;-59
2023/06/24 03:29:32;;;;;;;15.73;12.70;;;;;;;17.46;100.00;102251.50;5008570;28;20049;-59
2023/06/24 03:32:00;;;;;;;15.48;11.70;;;;;;;17.52;100.00;102253.72;5008251;28;20050;-59
2023/06/24 03:34:28;;;;;;;16.27;12.13;;;;;;;17.43;100.00;102249.06;5009007;28;20540;-59
2023/06/24 03:36:56;;;;;;;14.95;12.13;;;;;;;17.34;100.00;102259.41;5008126;28;20033;-60
2023/06/24 03:39:25;;;;;;;14.65;11.32;;;;;;;17.39;100.00;102248.44;5008750;28;20053;-59
2023/06/24 03:41:54;;;;;;;17.63;12.32;;;;;;;17.42;100.00;102252.69;5012723;28;20464;-59
2023/06/24 03:44:23;;;;;;;15.70;12.15;;;;;;;17.43;100.00;102251.75;5012068;28;20532;-58
2023/06/24 03:46:51;;;;;;;14.55;11.57;;;;;;;17.42;100.00;102253.53;5011732;28;20080;-58
2023/06/24 03:49:19;;;;;;;14.38;11.30;;;;;;;17.39;100.00;102257.25;5012627;28;20680;-58
2023/06/24 03:51:48;;;;;;;17.02;11.95;;;;;;;17.26;100.00;102261.78;5012179;28;20042;-58
2023/06/24 03:54:16;;;;;;;14.73;11.88;;;;;;;17.31;100.00;102256.97;5012434;28;20050;-56
2023/06/24 03:56:44;;;;;;;14.57;11.90;;;;;;;17.32;100.00;102258.66;5012700;28;20050;-56
2023/06/24 03:59:12;;;;;;;15.30;11.98;;;;;;;17.37;100.00;102261.00;5011291;28;20054;-56
2023/06/24 04:01:42;;;;;;;14.65;11.75;;;;;;;17.32;100.00;102258.66;5011863;28;20038;-56
2023/06/24 04:04:10;;;;;;;15.65;12.30;;;;;;;17.33;100.00;102259.50;5011739;28;20497;-55
2023/06/24 04:06:38;;;;;;;14.98;12.23;;;;;;;17.34;100.00;102256.75;5010346;28;20046;-57
2023/06/24 04:09:08;;;;;;;17.55;12.25;;;;;;;17.37;100.00;102261.84;5012409;28;20038;-57
2023/06/24 04:11:36;;;;;;;16.08;12.40;;;;;;;17.38;100.00;102263.56;5012568;28;20053;-57
2023/06/24 04:14:06;;;;;;;16.70;12.40;;;;;;;17.37;100.00;102263.66;5011801;28;20064;-58
2023/06/24 04:16:35;;;;;;;14.65;11.70;;;;;;;17.39;100.00;102265.22;5011985;28;20060;-58
2023/06/24 04:19:04;;;;;;;14.80;11.55;;;;;;;17.40;100.00;102256.31;5011779;28;20058;-58
2023/06/24 04:21:32;;;;;;;14.63;12.13;;;;;;;17.45;100.00;102260.44;5011766;28;20405;-59
2023/06/24 04:24:00;;;;;;;15.55;12.50;;;;;;;17.39;100.00;102259.91;5011931;28;20081;-59
2023/06/24 04:26:28;;;;;;;14.75;11.90;;;;;;;17.40;100.00;102258.97;5010411;28;20054;-59
2023/06/24 04:28:56;;;;;;;16.10;11.15;;;;;;;17.47;100.00;102261.19;5011249;28;20041;-59
2023/06/24 04:31:25;;;;;;;15.00;12.50;;;;;;;17.40;100.00;102256.31;5010861;28;20133;-59
2023/06/24 04:33:53;;;;;;;16.77;11.90;;;;;;;17.42;100.00;102261.50;5011234;28;20045;-59
2023/06/24 04:36:23;;;;;;;16.23;11.65;;;;;;;17.46;100.00;102262.16;5011645;28;20053;-58
2023/06/24 04:38:51;;;;;;;16.83;11.43;;;;;;;17.50;100.00;102264.47;5009950;28;20053;-59
2023/06/24 04:41:19;;;;;;;13.75;11.85;;;;;;;17.54;100.00;102251.81;5011838;28;20111;-58
2023/06/24 04:43:50;;;;;;;15.50;12.68;;;;;;;17.56;100.00;102265.81;5011876;28;20501;-59
2023/06/24 04:46:19;;;;;;;15.40;12.00;;;;;;;17.64;100.00;102263.47;5010080;28;20041;-58
2023/06/24 04:48:47;;;;;;;16.70;12.07;;;;;;;17.72;100.00;102269.09;5011418;28;20544;-59
2023/06/24 04:51:15;;;;;;;15.75;12.30;;;;;;;17.67;100.00;102268.56;5010490;28;20045;-58
2023/06/24 04:53:45;;;;;;;14.15;11.75;;;;;;;17.70;100.00;102271.00;5011180;28;20048;-58
2023/06/24 04:56:13;;;;;;;16.83;13.05;;;;;;;17.73;100.00;102272.59;5010787;28;20136;-58
2023/06/24 04:58:41;;;;;;;17.13;13.35;;;;;;;17.76;100.00;102276.84;5010860;28;20057;-58
2023/06/24 05:01:09;;;;;;;17.10;13.43;;;;;;;17.88;100.00;102275.94;5011469;28;20041;-59
2023/06/24 05:03:37;;;;;;;17.58;13.50;;;;;;;17.92;100.00;102266.78;5014466;28;20104;-58
2023/06/24 05:06:06;;;;;;;18.35;13.07;;;;;;;17.96;100.00;102272.75;5014560;28;20047;-58
2023/06/24 05:08:34;;;;;;;17.80;13.73;;;;;;;17.94;100.00;102262.19;5014490;28;20501;-58
2023/06/24 05:11:03;;;;;;;18.35;14.75;;;;;;;18.00;100.00;102263.56;5011886;28;20566;-58
2023/06/24 05:13:32;;;;;;;18.52;13.98;;;;;;;18.02;100.00;102259.81;5010315;28;20054;-58
2023/06/24 05:16:00;;;;;;;18.30;14.07;;;;;;;18.10;100.00;102258.41;5009689;28;20060;-58
2023/06/24 05:18:31;;;;;;;18.17;15.18;;;;;;;18.19;100.00;102255.06;5010562;28;20053;-58
2023/06/24 05:20:59;;;;;;;19.08;15.57;;;;;;;18.27;100.00;102258.00;5009983;28;20060;-58
2023/06/24 05:23:27;;;;;;;21.08;15.05;;;;;;;18.35;100.00;102262.72;5013001;28;20107;-58
2023/06/24 05:25:55;;;;;;;19.08;15.48;;;;;;;18.38;100.00;102266.00;5014110;28;20054;-58
2023/06/24 05:28:27;;;;;;;19.98;14.80;;;;;;;18.43;100.00;102262.97;5012376;28;20038;-58
2023/06/24 05:30:55;;;;;;;19.08;15.25;;;;;;;18.50;100.00;102266.03;5009815;28;20581;-57
2023/06/24 05:33:23;;;;;;;17.60;14.20;;;;;;;18.56;100.00;102277.06;5010865;28;20100;-57
2023/06/24 05:35:52;;;;;;;18.30;14.07;;;;;;;18.65;100.00;102277.31;5009826;28;20054;-57
2023/06/24 05:38:20;;;;;;;19.05;13.80;;;;;;;18.71;100.00;102280.34;5009730;28;20438;-57
2023/06/24 05:40:48;;;;;;;18.50;13.10;;;;;;;18.79;100.00;102281.56;5011192;28;20059;-58
2023/06/24 05:43:16;;;;;;;16.60;13.02;;;;;;;18.88;100.00;102286.22;5009602;28;20092;-57
2023/06/24 05:45:46;;;;;;;16.80;12.93;;;;;;;18.97;100.00;102288.19;5010282;28;20075;-58
2023/06/24 05:48:16;;;;;;;15.85;12.35;;;;;;;19.03;100.00;102284.19;5009221;28;20137;-58
2023/06/24 05:50:44;;;;;;;15.85;11.75;;;;;;;19.11;100.00;102283.59;5010234;28;20046;-57
2023/06/24 05:53:15;;;;;;;14.88;10.95;;;;;;;19.23;100.00;102285.28;5009500;28;20065;-59
2023/06/24 05:55:43;;;;;;;16.33;10.90;;;;;;;19.35;100.00;102283.47;5013504;28;20061;-58
2023/06/24 05:58:12;;;;;;;14.27;10.02;;;;;;;19.43;100.00;102287.19;5010311;28;20053;-57
2023/06/24 06:00:40;;;;;;;12.30;9.25;;;;;;;19.53;100.00;102287.28;5008131;28;20049;-58
2023/06/24 06:03:10;;;;;;;12.80;9.23;;;;;;;19.61;100.00;102299.19;5006503;28;20042;-58
2023/06/24 06:05:38;;;;;;;12.55;8.50;;;;;;;19.69;100.00;102297.59;5009777;28;20454;-58
2023/06/24 06:08:07;;;;;;;11.52;7.97;;;;;;;19.81;100.00;102302.91;5010194;28;20038;-58
2023/06/24 06:10:35;;;;;;;11.60;7.57;;;;;;;19.90;100.00;102304.84;5011952;28;20517;-58
2023/06/24 06:13:03;;;;;;;12.25;6.15;;;;;;;20.01;100.00;102301.28;5009320;28;20096;-58
2023/06/24 06:15:31;;;;;;;11.13;5.88;;;;;;;20.14;100.00;102307.31;5009860;28;20060;-58
2023/06/24 06:17:59;;;;;;;10.13;5.50;;;;;;;20.24;100.00;102310.91;5007770;28;20064;-59
2023/06/24 06:20:29;;;;;;;9.68;6.03;;;;;;;20.37;100.00;102293.84;5009808;28;20120;-58
2023/06/24 06:22:57;;;;;;;8.73;5.45;;;;;;;20.53;100.00;102296.94;5009169;28;20436;-58
2023/06/24 06:25:26;;;;;;;9.65;5.30;;;;;;;20.59;100.00;102300.91;5011776;28;20412;-58
2023/06/24 06:27:54;;;;;;;10.35;5.32;;;;;;;20.72;100.00;102300.72;5009813;28;20151;-58
2023/06/24 06:30:25;;;;;;;8.77;5.50;;;;;;;20.81;100.00;102302.59;5009234;28;20777;-58
2023/06/24 06:32:53;;;;;;;9.35;5.80;;;;;;;20.91;100.00;102300.84;5008389;28;20074;-59
2023/06/24 06:35:21;;;;;;;9.63;5.00;;;;;;;21.07;100.00;102300.34;5009879;28;20081;-57
2023/06/24 06:37:52;;;;;;;8.10;5.10;;;;;;;21.24;100.00;102298.00;5009066;28;20464;-57
2023/06/24 06:40:24;;;;;;;8.25;4.25;;;;;;;21.36;100.00;102299.59;5011868;28;20061;-60
2023/06/24 06:42:55;;;;;;;7.85;5.10;;;;;;;21.49;100.00;102293.16;5008827;28;20152;-58
2023/06/24 06:45:23;;;;;;;7.13;4.35;;;;;;;21.64;100.00;102297.19;5009770;28;20458;-58
2023/06/24 06:47:51;;;;;;;8.18;5.07;;;;;;;21.80;100.00;102303.81;5012497;28;20042;-57
2023/06/24 06:50:20;;;;;;;8.55;5.20;;;;;;;21.92;100.00;102300.03;5012616;28;20362;-57
2023/06/24 06:52:48;;;;;;;9.45;6.03;;;;;;;22.02;100.00;102298.22;5009519;28;20046;-57
2023/06/24 06:55:17;;;;;;;10.63;6.28;;;;;;;22.19;100.00;102306.53;5009088;28;20073;-57
2023/06/24 06:57:45;;;;;;;8.63;5.32;;;;;;;22.38;100.00;102306.53;5008829;28;20050;-58
2023/06/24 07:00:14;;;;;;;9.43;5.30;;;;;;;22.52;100.00;102307.09;5008545;28;20049;-58
2023/06/24 07:02:42;;;;;;;9.88;5.00;;;;;;;22.66;100.00;102305.78;5008060;28;20054;-58
2023/06/24 07:05:11;;;;;;;10.15;4.70;;;;;;;22.78;100.00;102305.50;5008897;28;20287;-58
2023/06/24 07:07:39;;;;;;;8.10;4.90;;;;;;;22.90;100.00;102310.69;5008328;28;20535;-57
2023/06/24 07:10:10;;;;;;;8.43;4.30;;;;;;;23.01;100.00;102305.13;5008651;28;20073;-58
2023/06/24 07:12:40;;;;;;;7.55;3.88;;;;;;;23.25;100.00;102311.84;5009095;28;20077;-56
2023/06/24 07:15:10;;;;;;;8.88;4.80;;;;;;;23.30;100.00;102320.28;5011723;28;20055;-57
2023/06/24 07:17:41;;;;;;;9.70;5.17;;;;;;;23.42;100.00;102313.75;5013976;28;20081;-58
2023/06/24 07:20:10;;;;;;;8.93;4.72;;;;;;;23.52;100.00;102316.38;5012637;28;20046;-57
2023/06/24 07:22:38;;;;;;;9.90;5.13;;;;;;;23.62;100.00;102310.94;5012861;28;20087;-57
2023/06/24 07:25:07;;;;;;;7.53;4.82;;;;;;;23.84;100.00;102316.88;5013572;28;20038;-58
2023/06/24 07:27:38;;;;;;;9.55;5.57;;;;;;;24.03;100.00;102324.81;5013043;28;20046;-58
2023/06/24 07:30:09;;;;;;;8.65;5.32;;;;;;;24.12;100.00;102321.22;5011162;28;20045;-59
2023/06/24 07:32:38;;;;;;;10.05;5.60;;;;;;;24.35;100.00;102328.81;5012314;28;20417;-58
2023/06/24 07:35:07;;;;;;;9.77;5.68;;;;;;;24.55;100.00;102328.63;5013087;28;20078;-58
2023/06/24 07:37:35;;;;;;;9.18;5.70;;;;;;;24.66;100.00;102323.00;5012488;28;20060;-58
2023/06/24 07:40:05;;;;;;;8.73;5.80;;;;;;;24.82;100.00;102324.13;5013074;28;20280;-58
2023/06/24 07:42:33;;;;;;;9.48;6.40;;;;;;;24.56;100.00;102328.47;5011825;28;20057;-58
2023/06/24 07:45:01;;;;;;;8.80;5.40;;;;;;;24.80;100.00;102326.97;5012165;28;20088;-58
2023/06/24 07:47:32;;;;;;;8.65;5.30;;;;;;;24.89;100.00;102326.00;5011356;28;20077;-58
2023/06/24 07:50:00;;;;;;;8.82;5.38;;;;;;;25.00;100.00;102324.91;5015202;28;20076;-58
2023/06/24 07:52:28;;;;;;;10.48;6.70;;;;;;;25.16;100.00;102331.38;5011658;28;20056;-58
2023/06/24 07:54:56;;;;;;;9.75;6.07;;;;;;;25.29;100.00;102321.84;5013717;28;20054;-59
2023/06/24 07:57:24;;;;;;;10.25;5.30;;;;;;;25.53;100.00;102319.44;5015458;28;20054;-58
2023/06/24 07:59:54;;;;;;;9.10;5.28;;;;;;;25.72;100.00;102319.16;5015007;28;20105;-58
2023/06/24 08:02:23;;;;;;;7.50;4.40;;;;;;;25.89;100.00;102308.41;5013161;28;20045;-58
2023/06/24 08:04:55;;;;;;;8.32;4.45;;;;;;;25.92;93.85;102310.75;5011616;28;20574;-58
2023/06/24 08:07:23;;;;;;;8.75;3.90;;;;;;;25.85;91.70;102317.81;5013389;28;20472;-58
2023/06/24 08:09:52;;;;;;;6.20;3.05;;;;;;;26.11;87.52;102309.63;5013401;28;20501;-58
2023/06/24 08:12:20;;;;;;;9.23;3.63;;;;;;;26.14;87.97;102307.44;5010316;28;20477;-58
2023/06/24 08:14:48;;;;;;;6.95;3.65;;;;;;;25.83;80.87;102301.81;5010270;28;20567;-58
2023/06/24 08:17:16;;;;;;;10.10;3.45;;;;;;;26.21;82.74;102299.53;5011306;28;20057;-58
2023/06/24 08:19:45;;;;;;;7.63;3.55;;;;;;;26.29;76.23;102296.00;5011799;28;20045;-58
2023/06/24 08:22:14;;;;;;;6.80;2.90;;;;;;;26.28;74.75;102305.09;5011082;28;20057;-57
2023/06/24 08:24:42;;;;;;;6.72;3.08;;;;;;;26.18;72.18;102297.19;5014494;28;20046;-58
2023/06/24 08:27:10;;;;;;;7.18;2.72;;;;;;;26.57;74.48;102301.84;5014116;28;20374;-58
2023/06/24 08:29:38;;;;;;;6.97;3.50;;;;;;;26.77;71.33;102291.56;5011259;28;20042;-57
2023/06/24 08:32:07;;;;;;;6.78;3.22;;;;;;;26.90;71.17;102298.25;5010750;28;20049;-58
2023/06/24 08:34:35;;;;;;;6.82;3.80;;;;;;;26.96;71.57;102284.91;5011577;28;20125;-58
2023/06/24 08:37:04;;;;;;;6.70;3.83;;;;;;;26.68;69.35;102286.31;5011086;28;20355;-58
2023/06/24 08:39:33;;;;;;;8.40;3.30;;;;;;;27.10;76.05;102290.59;5010016;28;20133;-58
2023/06/24 08:42:02;;;;;;;7.38;3.30;;;;;;;27.34;68.68;102289.66;5011575;28;20421;-58
2023/06/24 08:44:30;;;;;;;5.75;3.03;;;;;;;27.57;68.72;102292.44;5010686;28;20057;-58
2023/06/24 08:46:58;;;;;;;6.53;3.42;;;;;;;27.91;67.99;102293.03;5010620;28;20556;-58
2023/06/24 08:49:30;;;;;;;7.78;3.33;;;;;;;28.04;69.45;102287.91;5011169;28;20046;-58
2023/06/24 08:52:03;;;;;;;6.40;3.50;;;;;;;27.77;63.14;102284.72;5010656;28;20111;-58
2023/06/24 08:54:35;;;;;;;;;;;;;;;27.76;65.65;102292.97;5012626;28;20045;-58
2023/06/24 08:57:05;;;;;;;6.85;3.63;;;;;;;27.92;68.05;102294.72;5014740;28;19927;-58
2023/06/24 08:59:34;;;;;;;7.68;3.60;;;;;;;27.86;65.15;102288.19;5012628;28;20132;-59
2023/06/24 09:02:03;;;;;;;7.78;3.78;;;;;;;28.10;60.62;102295.28;5010618;28;20052;-58
2023/06/24 09:04:31;;;;;;;6.55;3.67;;;;;;;28.01;61.05;102288.25;5009449;28;20073;-58
2023/06/24 09:06:59;;;;;;;6.45;3.35;;;;;;;28.52;58.15;102292.19;5010318;28;20053;-58
2023/06/24 09:09:28;;;;;;;5.40;2.60;;;;;;;28.82;57.36;102296.66;5011041;28;20060;-58
2023/06/24 09:11:59;;;;;;;6.05;2.70;;;;;;;29.06;55.68;102293.84;5011243;28;20056;-58
2023/06/24 09:14:30;;;;;;;7.97;2.78;;;;;;;29.34;55.18;102291.28;5010266;28;20056;-59
2023/06/24 09:17:01;;;;;;;6.03;2.53;;;;;;;29.55;53.58;102286.94;5009791;28;20049;-58
2023/06/24 09:19:30;;;;;;;6.80;3.42;;;;;;;29.78;54.93;102286.75;5010890;28;20866;-57
2023/06/24 09:22:03;;;;;;;8.57;4.00;;;;;;;30.07;57.47;102283.06;5010649;28;20046;-57
2023/06/24 09:24:31;;;;;;;6.15;3.50;;;;;;;30.02;50.68;102274.69;5013732;28;20049;-57
2023/06/24 09:27:01;;;;;;;7.47;3.88;;;;;;;30.29;50.22;102278.44;5011561;28;20137;-58
2023/06/24 09:29:32;;;;;;;6.38;3.95;;;;;;;30.14;50.98;102281.25;5009768;28;20561;-57
2023/06/24 09:32:04;;;;;;;7.18;4.60;;;;;;;30.09;51.05;102270.19;5010180;28;20136;-57
2023/06/24 09:34:33;;;;;;;7.72;4.50;;;;;;;30.23;47.87;102270.25;5013843;28;20069;-56
2023/06/24 09:37:04;;;;;;;6.15;3.70;;;;;;;30.18;48.63;102268.16;5013103;28;20100;-56
2023/06/24 09:39:37;;;;;;;7.10;3.70;;;;;;;30.15;48.92;102260.41;5010966;28;20069;-56
2023/06/24 09:42:07;;;;;;;7.25;4.03;;;;;;;30.28;49.75;102260.50;5010065;28;20057;-57
2023/06/24 09:44:36;;;;;;;6.45;4.10;;;;;;;30.08;47.74;102257.66;5010247;28;20046;-57
2023/06/24 09:47:04;;;;;;;8.27;3.55;;;;;;;30.14;45.43;102259.56;5010338;28;20355;-56
2023/06/24 09:49:33;;;;;;;6.25;3.38;;;;;;;29.95;47.75;102260.25;5011621;28;20045;-56
2023/06/24 09:52:03;;;;;;;5.72;3.30;;;;;;;30.11;46.16;102259.13;5009582;28;20056;-57
2023/06/24 09:54:32;;;;;;;6.72;3.58;;;;;;;30.10;48.64;102252.84;5009820;28;20520;-57
2023/06/24 09:57:03;;;;;;;7.53;3.55;;;;;;;30.12;48.73;102256.22;5010058;28;20054;-57
2023/06/24 09:59:34;;;;;;;44.15;7.90;;;;;;;30.32;51.02;102260.94;5009512;28;20058;-57
2023/06/24 10:02:04;;;;;;;8.65;3.70;;;;;;;30.42;48.48;102264.16;5009077;28;20050;-57
2023/06/24 10:04:33;;;;;;;8.00;4.22;;;;;;;30.46;45.89;102259.19;5009662;28;20046;-57
2023/06/24 10:07:02;;;;;;;9.35;4.22;;;;;;;30.42;48.09;102256.00;5009493;28;20108;-57
2023/06/24 10:09:33;;;;;;;9.38;3.88;;;;;;;30.62;47.48;102252.59;5010799;28;20494;-57
2023/06/24 10:12:01;;;;;;;6.78;3.60;;;;;;;30.98;47.66;102255.09;5011789;28;20050;-58
2023/06/24 10:14:29;;;;;;;9.45;4.80;;;;;;;31.07;44.36;102263.91;5009161;28;20041;-58
2023/06/24 10:17:04;;;;;;;6.93;3.80;;;;;;;31.26;48.41;102254.16;5008988;28;20169;-58
2023/06/24 10:19:39;;;;;;;9.35;4.55;;;;;;;31.44;46.25;102253.59;5011080;28;20543;-58
2023/06/24 10:22:10;;;;;;;7.68;3.83;;;;;;;31.68;47.24;102259.50;5009177;28;20109;-58
2023/06/24 10:24:41;;;;;;;10.18;4.25;;;;;;;31.47;45.37;102252.34;5011185;28;20053;-58
2023/06/24 10:27:16;;;;;;;7.38;3.60;;;;;;;31.74;47.61;102247.81;5013015;28;20446;-58
2023/06/24 10:29:47;;;;;;;7.10;4.25;;;;;;;31.87;43.46;102246.97;5012762;28;20042;-58
2023/06/24 10:32:18;;;;;;;7.38;4.63;;;;;;;31.96;43.83;102253.88;5012289;28;20050;-58
2023/06/24 10:34:48;;;;;;;6.38;3.75;;;;;;;32.16;43.15;102256.63;5009665;28;20504;-58
2023/06/24 10:37:20;;;;;;;7.75;3.88;;;;;;;31.84;43.98;102247.41;5008987;28;20080;-57
2023/06/24 10:39:50;;;;;;;6.03;3.45;;;;;;;32.14;43.11;102244.25;5010118;28;20136;-58
2023/06/24 10:42:43;;;;;;;6.57;3.67;;;;;;;32.32;41.57;102244.44;5012740;28;20050;-59
2023/06/24 10:45:15;;;;;;;;;;;;;;;32.19;40.67;102239.00;5013501;28;20543;-60
2023/06/24 10:47:46;;;;;;;7.43;3.90;;;;;;;32.19;42.45;102239.00;5010945;28;19929;-58
2023/06/24 10:50:16;;;;;;;7.68;3.80;;;;;;;32.11;41.77;102237.34;5009024;28;20409;-59
2023/06/24 10:52:45;;;;;;;6.47;3.72;;;;;;;32.23;42.57;102234.81;5012092;28;20053;-57
2023/06/24 10:55:16;;;;;;;6.82;4.10;;;;;;;32.64;42.55;102238.28;5011167;28;20134;-58
2023/06/24 10:57:45;;;;;;;8.80;4.78;;;;;;;32.47;42.78;102235.22;5011427;28;20065;-58
2023/06/24 11:00:16;;;;;;;7.07;3.90;;;;;;;32.35;42.90;102235.88;5007058;28;20103;-58
2023/06/24 11:02:46;;;;;;;9.00;4.15;;;;;;;32.69;43.29;102233.03;5007688;28;20052;-58
2023/06/24 11:05:14;;;;;;;7.55;3.58;;;;;;;32.91;39.81;102224.59;5008315;28;20096;-58
2023/06/24 11:07:42;;;;;;;7.05;3.83;;;;;;;33.18;40.84;102236.19;5008301;28;20061;-58
2023/06/24 11:10:12;;;;;;;7.53;3.67;;;;;;;33.22;41.38;102212.91;5008797;28;20140;-58
2023/06/24 11:12:43;;;;;;;6.40;3.67;;;;;;;33.39;42.46;102215.97;5008969;28;20045;-58
2023/06/24 11:15:12;;;;;;;6.63;3.47;;;;;;;33.35;41.70;102223.75;5008498;28;20527;-57
2023/06/24 11:17:42;;;;;;;6.70;3.70;;;;;;;33.49;39.63;102219.03;5008325;28;20132;-58
2023/06/24 11:20:13;;;;;;;8.80;4.10;;;;;;;33.37;39.36;102223.53;5008587;28;20143;-56
2023/06/24 11:22:42;;;;;;;6.53;3.67;;;;;;;33.57;39.51;102211.63;5008836;28;20184;-58